createdAt,value
2024-01-31T00:01:53.161Z,1.06
2024-01-31T00:04:19.753Z,1.10
2024-01-31T00:06:50.879Z,1.13
2024-01-31T00:09:17.285Z,1.10
2024-01-31T00:11:43.770Z,1.07
2024-01-31T00:14:11.132Z,1.08
2024-01-31T00:16:37.798Z,1.09
2024-01-31T00:19:04.353Z,1.10
2024-01-31T00:21:30.827Z,1.06
2024-01-31T00:23:58.114Z,1.08
2024-01-31T00:26:24.546Z,1.08
2024-01-31T00:28:50.991Z,1.10
2024-01-31T00:31:18.253Z,1.09
2024-01-31T00:33:44.776Z,1.10
2024-01-31T00:36:11.249Z,1.09
2024-01-31T00:38:37.673Z,1.07
2024-01-31T00:41:05.633Z,1.15
2024-01-31T00:43:32.076Z,1.14
2024-01-31T00:45:58.584Z,1.08
2024-01-31T00:48:25.156Z,1.11
2024-01-31T00:50:51.691Z,1.06
2024-01-31T00:53:18.114Z,1.12
2024-01-31T00:55:44.659Z,1.12
2024-01-31T00:58:11.191Z,1.19
2024-01-31T01:00:37.706Z,1.25
2024-01-31T01:03:04.175Z,1.21
2024-01-31T01:05:30.637Z,1.20
2024-01-31T01:07:57.065Z,1.19
2024-01-31T01:10:23.519Z,1.26
2024-01-31T01:12:50.117Z,1.27
2024-01-31T01:15:20.045Z,1.26
2024-01-31T01:17:46.527Z,1.22
2024-01-31T01:20:13.505Z,1.24
2024-01-31T01:22:40.454Z,1.26
2024-01-31T01:25:07.319Z,1.24
2024-01-31T01:27:33.820Z,1.25
2024-01-31T01:30:00.291Z,1.26
2024-01-31T01:32:26.972Z,1.26
2024-01-31T01:34:53.448Z,1.29
2024-01-31T01:37:20.392Z,1.31
2024-01-31T01:39:47.001Z,1.31
2024-01-31T01:42:13.504Z,1.29
2024-01-31T01:44:46.433Z,1.28
2024-01-31T01:47:15.141Z,1.30
2024-01-31T01:49:41.917Z,1.30
2024-01-31T01:52:10.262Z,1.31
2024-01-31T01:54:38.212Z,1.33
2024-01-31T01:57:06.694Z,1.34
2024-01-31T01:59:35.352Z,1.39
2024-01-31T02:02:02.432Z,1.38
2024-01-31T02:04:32.067Z,1.40
2024-01-31T02:06:59.004Z,1.39
2024-01-31T02:09:27.255Z,1.38
2024-01-31T02:11:53.791Z,1.41
2024-01-31T02:14:20.240Z,1.42
2024-01-31T02:16:46.833Z,1.46
2024-01-31T02:19:13.681Z,1.43
2024-01-31T02:21:44.295Z,1.41
2024-01-31T02:24:11.745Z,1.43
2024-01-31T02:26:38.173Z,1.45
2024-01-31T02:29:04.586Z,1.46
2024-01-31T02:31:31.032Z,1.46
2024-01-31T02:33:57.558Z,1.46
2024-01-31T02:36:24.000Z,1.47
2024-01-31T02:38:50.424Z,1.50
2024-01-31T02:41:16.881Z,1.51
2024-01-31T02:43:43.451Z,1.52
2024-01-31T02:46:09.889Z,1.51
2024-01-31T02:48:36.467Z,1.58
2024-01-31T02:51:02.930Z,1.59
2024-01-31T02:53:29.326Z,1.58
2024-01-31T02:55:55.721Z,1.59
2024-01-31T02:58:22.196Z,1.57
2024-01-31T03:00:48.610Z,1.59
2024-01-31T03:03:15.026Z,1.61
2024-01-31T03:05:41.547Z,1.64
2024-01-31T03:08:08.032Z,1.62
2024-01-31T03:10:34.516Z,1.64
2024-01-31T03:13:00.999Z,1.64
2024-01-31T03:15:27.433Z,1.63
2024-01-31T03:17:53.834Z,1.66
2024-01-31T03:20:20.277Z,1.69
2024-01-31T03:22:47.073Z,1.71
2024-01-31T03:25:13.564Z,1.75
2024-01-31T03:27:40.071Z,1.73
2024-01-31T03:30:09.316Z,1.74
2024-01-31T03:32:37.589Z,1.74
2024-01-31T03:35:04.638Z,1.72
2024-01-31T03:37:31.141Z,1.71
2024-01-31T03:39:57.723Z,1.71
2024-01-31T03:42:24.164Z,1.73
2024-01-31T03:44:50.573Z,1.73
2024-01-31T03:47:17.106Z,1.74
2024-01-31T03:49:43.650Z,1.74
2024-01-31T03:52:10.132Z,1.72
2024-01-31T03:54:36.592Z,1.74
2024-01-31T03:57:02.993Z,1.75
2024-01-31T03:59:29.555Z,1.79
2024-01-31T04:01:56.080Z,1.78
2024-01-31T04:04:22.579Z,1.78
2024-01-31T04:06:49.021Z,1.76
2024-01-31T04:09:15.578Z,1.78
2024-01-31T04:11:41.978Z,1.79
2024-01-31T04:14:08.405Z,1.78
2024-01-31T04:16:34.870Z,1.77
2024-01-31T04:19:01.534Z,1.79
2024-01-31T04:21:28.145Z,1.79
2024-01-31T04:23:54.621Z,1.80
2024-01-31T04:26:21.080Z,1.81
2024-01-31T04:28:47.592Z,1.85
2024-01-31T04:31:17.365Z,1.84
2024-01-31T04:33:44.044Z,1.85
2024-01-31T04:36:10.700Z,1.91
2024-01-31T04:38:37.167Z,1.94
2024-01-31T04:41:04.428Z,1.90
2024-01-31T04:43:31.310Z,1.90
2024-01-31T04:45:57.871Z,1.85
2024-01-31T04:48:24.489Z,1.85
2024-01-31T04:50:51.466Z,1.85
2024-01-31T04:53:18.311Z,1.87
2024-01-31T04:55:45.899Z,1.85
2024-01-31T04:58:16.177Z,1.83
2024-01-31T05:00:42.749Z,1.86
2024-01-31T05:03:09.502Z,1.86
2024-01-31T05:05:37.433Z,1.85
2024-01-31T05:08:04.212Z,1.83
2024-01-31T05:10:33.309Z,1.82
2024-01-31T05:12:59.800Z,1.83
2024-01-31T05:15:26.374Z,1.80
2024-01-31T05:17:52.821Z,1.77
2024-01-31T05:20:19.422Z,1.75
2024-01-31T05:22:46.005Z,1.74
2024-01-31T05:25:12.482Z,1.73
2024-01-31T05:27:38.957Z,1.69
2024-01-31T05:30:06.116Z,1.69
2024-01-31T05:32:32.841Z,1.67
2024-01-31T05:34:59.429Z,1.66
2024-01-31T05:37:25.981Z,1.65
2024-01-31T05:39:52.400Z,1.59
2024-01-31T05:42:18.800Z,1.56
2024-01-31T05:44:45.235Z,1.54
2024-01-31T05:47:11.637Z,1.51
2024-01-31T05:49:38.343Z,1.50
2024-01-31T05:52:05.329Z,1.52
2024-01-31T05:54:31.758Z,1.49
2024-01-31T05:56:58.173Z,1.48
2024-01-31T05:59:26.529Z,1.47
2024-01-31T06:01:53.158Z,1.44
2024-01-31T06:04:19.726Z,1.43
2024-01-31T06:06:46.243Z,1.40
2024-01-31T06:09:13.675Z,1.37
2024-01-31T06:11:40.358Z,1.32
2024-01-31T06:14:07.523Z,1.33
2024-01-31T06:16:34.426Z,1.34
2024-01-31T06:19:02.099Z,1.29
2024-01-31T06:21:28.560Z,1.30
2024-01-31T06:23:56.658Z,1.28
2024-01-31T06:26:23.861Z,1.28
2024-01-31T06:28:50.421Z,1.31
2024-01-31T06:31:25.711Z,1.34
2024-01-31T06:33:52.578Z,1.36
2024-01-31T06:36:20.692Z,1.42
2024-01-31T06:38:48.364Z,1.49
2024-01-31T06:41:18.976Z,1.48
2024-01-31T06:43:46.153Z,1.47
2024-01-31T06:46:12.703Z,1.48
2024-01-31T06:48:39.248Z,1.46
2024-01-31T06:51:06.170Z,1.44
2024-01-31T06:53:32.613Z,1.48
2024-01-31T06:56:00.847Z,1.50
2024-01-31T06:58:27.684Z,1.63
2024-01-31T07:00:56.733Z,1.79
2024-01-31T07:03:23.311Z,1.65
2024-01-31T07:05:49.727Z,1.64
2024-01-31T07:08:16.167Z,1.58
2024-01-31T07:10:42.719Z,1.56
2024-01-31T07:13:09.242Z,1.56
2024-01-31T07:15:35.960Z,1.55
2024-01-31T07:18:02.496Z,1.56
2024-01-31T07:20:29.163Z,1.57
2024-01-31T07:22:55.555Z,1.61
2024-01-31T07:25:22.020Z,1.59
2024-01-31T07:27:48.518Z,1.61
2024-01-31T07:30:15.265Z,1.64
2024-01-31T07:32:41.734Z,1.66
2024-01-31T07:35:08.995Z,1.66
2024-01-31T07:37:37.760Z,1.68
2024-01-31T07:40:08.250Z,1.76
2024-01-31T07:42:37.179Z,1.81
2024-01-31T07:45:05.495Z,1.90
2024-01-31T07:47:31.966Z,1.92
2024-01-31T07:49:58.532Z,1.94
2024-01-31T07:52:25.048Z,2.00
2024-01-31T07:54:51.499Z,2.04
2024-01-31T07:57:17.922Z,2.07
2024-01-31T07:59:44.395Z,2.09
2024-01-31T08:02:10.894Z,2.11
2024-01-31T08:04:37.401Z,2.14
2024-01-31T08:07:04.071Z,2.17
2024-01-31T08:09:30.767Z,2.21
2024-01-31T08:11:57.245Z,2.27
2024-01-31T08:14:23.762Z,2.49
2024-01-31T08:16:52.270Z,2.53
2024-01-31T08:19:19.100Z,2.57
2024-01-31T08:21:45.590Z,2.61
2024-01-31T08:24:12.077Z,2.66
2024-01-31T08:26:38.824Z,2.68
2024-01-31T08:29:11.530Z,2.73
2024-01-31T08:31:46.568Z,2.80
2024-01-31T08:34:14.222Z,2.84
2024-01-31T08:36:40.996Z,2.85
2024-01-31T08:39:09.552Z,2.94
2024-01-31T08:41:36.948Z,2.92
2024-01-31T08:44:03.352Z,2.99
2024-01-31T08:46:29.856Z,3.00
2024-01-31T08:48:56.407Z,3.05
2024-01-31T08:51:23.706Z,3.12
2024-01-31T08:53:50.179Z,3.13
2024-01-31T08:56:16.774Z,3.09
2024-01-31T08:58:43.471Z,3.06
2024-01-31T09:01:10.177Z,3.08
2024-01-31T09:03:36.705Z,3.10
2024-01-31T09:06:03.306Z,3.11
2024-01-31T09:08:29.890Z,3.13
2024-01-31T09:10:59.012Z,3.14
2024-01-31T09:13:25.939Z,3.18
2024-01-31T09:15:52.665Z,3.23
2024-01-31T09:18:19.148Z,3.25
2024-01-31T09:20:45.649Z,3.28
2024-01-31T09:23:12.067Z,3.31
2024-01-31T09:25:38.588Z,3.34
2024-01-31T09:28:05.207Z,3.36
2024-01-31T09:30:31.638Z,3.42
2024-01-31T09:32:58.205Z,3.46
2024-01-31T09:35:24.680Z,3.45
2024-01-31T09:37:51.280Z,3.49
2024-01-31T09:40:19.236Z,3.61
2024-01-31T09:42:46.466Z,3.60
2024-01-31T09:45:13.459Z,3.62
2024-01-31T09:47:41.812Z,3.64
2024-01-31T09:50:11.251Z,3.67
2024-01-31T09:52:41.084Z,3.68
2024-01-31T09:55:12.337Z,3.73
2024-01-31T09:57:43.163Z,3.71
2024-01-31T10:00:10.214Z,3.77
2024-01-31T10:02:37.242Z,3.82
2024-01-31T10:05:04.558Z,3.86
2024-01-31T10:07:32.196Z,3.91
2024-01-31T10:09:58.761Z,3.94
2024-01-31T10:12:28.100Z,3.95
2024-01-31T10:14:56.101Z,4.01
2024-01-31T10:17:23.581Z,4.03
2024-01-31T10:19:50.748Z,4.03
2024-01-31T10:22:17.621Z,4.04
2024-01-31T10:24:49.413Z,4.06
2024-01-31T10:27:15.931Z,4.05
2024-01-31T10:29:44.034Z,4.08
2024-01-31T10:32:10.929Z,4.07
2024-01-31T10:34:48.349Z,4.08
2024-01-31T10:37:53.089Z,4.09
2024-01-31T10:40:14.538Z,4.14
2024-01-31T10:42:42.013Z,4.18
2024-01-31T10:45:09.279Z,4.20
2024-01-31T10:47:36.062Z,4.24
2024-01-31T10:50:02.621Z,4.25
2024-01-31T10:52:34.000Z,4.28
2024-01-31T10:55:04.966Z,4.31
2024-01-31T10:57:32.743Z,4.31
2024-01-31T11:00:00.434Z,4.33
2024-01-31T11:02:32.341Z,4.33
2024-01-31T11:05:01.820Z,4.31
2024-01-31T11:07:29.705Z,4.33
2024-01-31T11:09:57.777Z,4.33
2024-01-31T11:12:28.902Z,4.31
2024-01-31T11:14:56.868Z,4.34
2024-01-31T11:17:24.256Z,4.46
2024-01-31T11:19:53.531Z,4.50
2024-01-31T11:22:21.101Z,4.49
2024-01-31T11:24:49.807Z,4.48
2024-01-31T11:27:18.572Z,4.50
2024-01-31T11:29:47.601Z,4.46
2024-01-31T11:32:14.189Z,4.50
2024-01-31T11:34:41.206Z,4.52
2024-01-31T11:37:08.373Z,4.57
2024-01-31T11:39:35.247Z,4.73
2024-01-31T11:42:02.020Z,4.61
2024-01-31T11:44:30.824Z,4.55
2024-01-31T11:46:57.852Z,4.63
2024-01-31T11:49:24.404Z,4.62
2024-01-31T11:51:50.855Z,4.58
2024-01-31T11:54:17.568Z,4.55
2024-01-31T11:56:44.355Z,4.63
2024-01-31T11:59:11.104Z,4.66
2024-01-31T12:01:37.525Z,4.65
2024-01-31T12:04:04.071Z,4.71
2024-01-31T12:06:31.339Z,4.69
2024-01-31T12:08:58.081Z,4.78
2024-01-31T12:11:24.740Z,4.78
2024-01-31T12:13:51.469Z,4.75
2024-01-31T12:16:18.291Z,4.74
2024-01-31T12:18:44.869Z,4.83
2024-01-31T12:21:11.581Z,4.87
2024-01-31T12:23:38.417Z,4.90
2024-01-31T12:26:05.195Z,4.83
2024-01-31T12:28:31.708Z,4.84
2024-01-31T12:30:58.253Z,4.87
2024-01-31T12:33:24.812Z,4.96
2024-01-31T12:35:51.572Z,4.88
2024-01-31T12:38:18.105Z,4.85
2024-01-31T12:40:44.512Z,4.93
2024-01-31T12:43:11.501Z,4.83
2024-01-31T12:45:38.484Z,4.87
2024-01-31T12:48:05.810Z,4.84
2024-01-31T12:50:32.716Z,4.78
2024-01-31T12:52:59.145Z,4.84
2024-01-31T12:55:25.567Z,4.86
2024-01-31T12:57:51.975Z,4.93
2024-01-31T13:00:18.754Z,4.91
2024-01-31T13:02:45.274Z,4.89
2024-01-31T13:05:13.037Z,4.89
2024-01-31T13:07:39.917Z,4.90
2024-01-31T13:10:08.065Z,4.95
2024-01-31T13:12:34.479Z,5.01
2024-01-31T13:15:01.096Z,4.99
2024-01-31T13:17:27.755Z,4.92
2024-01-31T13:19:54.339Z,4.96
2024-01-31T13:22:20.972Z,4.91
2024-01-31T13:24:48.152Z,4.94
2024-01-31T13:27:14.628Z,4.94
2024-01-31T13:29:41.239Z,4.95
2024-01-31T13:32:07.728Z,5.01
2024-01-31T13:34:35.136Z,4.97
2024-01-31T13:37:02.171Z,4.97
2024-01-31T13:39:28.659Z,5.00
2024-01-31T13:41:56.888Z,5.02
2024-01-31T13:44:23.509Z,5.07
2024-01-31T13:46:50.825Z,5.12
2024-01-31T13:49:19.913Z,5.19
2024-01-31T13:51:46.412Z,5.15
2024-01-31T13:54:13.218Z,5.12
2024-01-31T13:56:39.898Z,5.11
2024-01-31T13:59:06.484Z,5.12
2024-01-31T14:01:33.004Z,5.12
2024-01-31T14:03:59.597Z,5.17
2024-01-31T14:06:26.503Z,5.17
2024-01-31T14:08:53.049Z,5.28
2024-01-31T14:11:21.174Z,5.24
2024-01-31T14:13:47.897Z,5.23
2024-01-31T14:16:15.557Z,5.23
2024-01-31T14:18:42.680Z,5.24
2024-01-31T14:21:09.811Z,5.24
2024-01-31T14:23:43.621Z,5.24
2024-01-31T14:26:11.339Z,5.23
2024-01-31T14:28:40.962Z,5.28
2024-01-31T14:31:08.795Z,5.28
2024-01-31T14:33:36.039Z,5.28
2024-01-31T14:36:03.729Z,5.21
2024-01-31T14:38:30.265Z,5.28
2024-01-31T14:40:56.719Z,5.24
2024-01-31T14:43:23.424Z,5.23
2024-01-31T14:45:49.852Z,5.18
2024-01-31T14:48:17.294Z,5.16
2024-01-31T14:50:43.869Z,5.11
2024-01-31T14:53:10.605Z,5.08
2024-01-31T14:55:37.114Z,5.08
2024-01-31T14:58:04.343Z,5.09
2024-01-31T15:00:31.057Z,5.17
2024-01-31T15:02:57.543Z,5.12
2024-01-31T15:05:24.159Z,5.16
2024-01-31T15:07:50.653Z,5.12
2024-01-31T15:10:17.242Z,5.07
2024-01-31T15:12:43.679Z,5.05
2024-01-31T15:15:10.786Z,5.05
2024-01-31T15:17:40.563Z,4.99
2024-01-31T15:20:09.080Z,4.99
2024-01-31T15:22:36.322Z,4.98
2024-01-31T15:25:03.851Z,4.99
2024-01-31T15:27:30.676Z,4.99
2024-01-31T15:29:57.235Z,4.98
2024-01-31T15:32:24.020Z,4.97
2024-01-31T15:34:50.769Z,4.97
2024-01-31T15:37:17.218Z,4.96
2024-01-31T15:39:43.751Z,4.95
2024-01-31T15:42:10.371Z,4.95
2024-01-31T15:44:37.294Z,4.94
2024-01-31T15:47:04.247Z,4.93
2024-01-31T15:49:31.706Z,4.98
2024-01-31T15:51:59.100Z,5.05
2024-01-31T15:54:25.891Z,5.01
2024-01-31T15:56:53.733Z,5.02
2024-01-31T15:59:20.416Z,4.98
2024-01-31T16:01:47.093Z,5.00
2024-01-31T16:04:13.647Z,4.98
2024-01-31T16:06:56.864Z,4.94
2024-01-31T16:09:25.163Z,4.93
2024-01-31T16:11:52.737Z,4.93
2024-01-31T16:14:19.636Z,5.04
2024-01-31T16:16:46.331Z,5.06
2024-01-31T16:19:13.756Z,5.06
2024-01-31T16:21:43.419Z,5.07
2024-01-31T16:24:12.227Z,5.22
2024-01-31T16:26:40.751Z,5.18
2024-01-31T16:29:07.665Z,5.28
2024-01-31T16:31:34.145Z,5.34
2024-01-31T16:34:00.703Z,5.44
2024-01-31T16:36:27.245Z,5.47
2024-01-31T16:38:53.836Z,5.44
2024-01-31T16:41:22.757Z,5.39
2024-01-31T16:43:49.900Z,5.37
2024-01-31T16:46:16.550Z,5.32
2024-01-31T16:48:44.045Z,5.29
2024-01-31T16:51:13.789Z,5.28
2024-01-31T16:53:40.297Z,5.27
2024-01-31T16:56:06.934Z,5.24
2024-01-31T16:58:33.470Z,5.24
2024-01-31T17:00:59.925Z,5.20
2024-01-31T17:03:26.896Z,5.20
2024-01-31T17:05:53.496Z,5.17
2024-01-31T17:08:20.091Z,5.17
2024-01-31T17:10:49.649Z,5.23
2024-01-31T17:13:20.867Z,5.21
2024-01-31T17:15:47.751Z,5.22
2024-01-31T17:18:18.940Z,5.22
2024-01-31T17:20:49.166Z,5.22
2024-01-31T17:23:16.871Z,5.21
2024-01-31T17:25:44.143Z,5.20
2024-01-31T17:28:11.167Z,5.17
2024-01-31T17:30:41.595Z,5.24
2024-01-31T17:33:10.083Z,5.23
2024-01-31T17:35:37.047Z,5.21
2024-01-31T17:38:03.917Z,5.23
2024-01-31T17:40:30.381Z,5.18
2024-01-31T17:42:57.152Z,5.19
2024-01-31T17:45:23.610Z,5.13
2024-01-31T17:47:51.009Z,5.09
2024-01-31T17:50:18.240Z,5.05
2024-01-31T17:52:45.014Z,5.01
2024-01-31T17:55:13.269Z,4.98
2024-01-31T17:57:39.796Z,4.93
2024-01-31T18:00:06.875Z,4.90
2024-01-31T18:02:33.436Z,4.91
2024-01-31T18:05:01.013Z,4.88
2024-01-31T18:07:27.610Z,4.85
2024-01-31T18:09:54.119Z,4.85
2024-01-31T18:12:27.842Z,4.81
2024-01-31T18:14:55.346Z,4.80
2024-01-31T18:17:21.885Z,4.78
2024-01-31T18:19:48.512Z,4.77
2024-01-31T18:22:18.218Z,4.76
2024-01-31T18:24:44.687Z,4.73
2024-01-31T18:27:11.501Z,4.73
2024-01-31T18:29:38.680Z,4.71
2024-01-31T18:32:06.214Z,4.70
2024-01-31T18:34:33.471Z,4.69
2024-01-31T18:37:02.700Z,4.70
2024-01-31T18:39:29.499Z,4.70
2024-01-31T18:41:56.164Z,4.67
2024-01-31T18:44:22.941Z,4.66
2024-01-31T18:46:49.371Z,4.64
2024-01-31T18:49:18.923Z,4.60
2024-01-31T18:51:45.698Z,4.59
2024-01-31T18:54:12.290Z,4.57
2024-01-31T18:56:39.396Z,4.57
2024-01-31T18:59:07.290Z,4.55
2024-01-31T19:01:34.460Z,4.49
2024-01-31T19:04:01.004Z,4.48
2024-01-31T19:06:27.611Z,4.54
2024-01-31T19:08:54.608Z,4.54
2024-01-31T19:11:24.488Z,4.59
2024-01-31T19:13:58.294Z,4.57
2024-01-31T19:16:25.277Z,4.59
2024-01-31T19:18:54.549Z,4.64
2024-01-31T19:21:21.206Z,4.65
2024-01-31T19:23:48.050Z,4.61
2024-01-31T19:26:14.767Z,4.55
2024-01-31T19:28:41.538Z,4.60
2024-01-31T19:31:07.954Z,4.57
2024-01-31T19:33:36.401Z,4.56
2024-01-31T19:36:03.177Z,4.51
2024-01-31T19:38:29.772Z,4.45
2024-01-31T19:40:56.256Z,4.68
2024-01-31T19:43:22.716Z,4.43
2024-01-31T19:45:49.140Z,4.26
2024-01-31T19:48:15.754Z,4.23
2024-01-31T19:50:42.333Z,4.09
2024-01-31T19:53:12.058Z,3.99
2024-01-31T19:55:38.414Z,3.93
2024-01-31T19:58:07.053Z,3.83
2024-01-31T20:00:34.061Z,3.77
2024-01-31T20:03:00.592Z,3.62
2024-01-31T20:05:27.264Z,3.54
2024-01-31T20:07:56.128Z,3.41
2024-01-31T20:10:23.209Z,3.40
2024-01-31T20:12:49.632Z,3.37
2024-01-31T20:15:16.155Z,3.30
2024-01-31T20:17:42.802Z,3.21
2024-01-31T20:20:09.704Z,3.11
2024-01-31T20:22:37.934Z,3.06
2024-01-31T20:25:05.275Z,2.97
2024-01-31T20:27:33.091Z,2.97
2024-01-31T20:29:59.669Z,2.88
2024-01-31T20:32:26.248Z,2.85
2024-01-31T20:34:52.866Z,2.81
2024-01-31T20:37:19.374Z,2.78
2024-01-31T20:39:45.837Z,2.71
2024-01-31T20:42:12.631Z,2.68
2024-01-31T20:44:39.835Z,2.66
2024-01-31T20:47:06.453Z,2.60
2024-01-31T20:49:33.198Z,2.53
2024-01-31T20:51:59.656Z,2.50
2024-01-31T20:54:26.126Z,2.50
2024-01-31T20:56:52.870Z,2.46
2024-01-31T20:59:19.322Z,2.42
2024-01-31T21:01:46.589Z,2.39
2024-01-31T21:04:13.308Z,2.32
2024-01-31T21:06:39.916Z,2.31
2024-01-31T21:09:06.481Z,2.27
2024-01-31T21:11:35.683Z,2.29
2024-01-31T21:14:02.123Z,2.25
2024-01-31T21:16:28.703Z,2.24
2024-01-31T21:18:55.319Z,2.17
2024-01-31T21:21:22.124Z,2.15
2024-01-31T21:23:48.706Z,2.11
2024-01-31T21:26:15.258Z,2.12
2024-01-31T21:28:41.685Z,2.13
2024-01-31T21:31:08.101Z,2.09
2024-01-31T21:33:34.759Z,2.08
2024-01-31T21:36:01.577Z,2.04
2024-01-31T21:38:28.136Z,2.06
2024-01-31T21:40:55.847Z,2.03
2024-01-31T21:43:22.581Z,1.98
2024-01-31T21:45:49.143Z,1.83
2024-01-31T21:48:15.745Z,1.78
2024-01-31T21:50:42.367Z,1.72
2024-01-31T21:53:08.801Z,1.72
2024-01-31T21:55:37.670Z,1.68
2024-01-31T21:58:04.599Z,1.68
2024-01-31T22:00:31.134Z,1.65
2024-01-31T22:02:57.953Z,1.55
2024-01-31T22:05:24.750Z,1.56
2024-01-31T22:07:51.289Z,1.54
2024-01-31T22:10:17.739Z,1.47
2024-01-31T22:12:44.159Z,1.41
2024-01-31T22:15:10.669Z,1.38
2024-01-31T22:17:37.175Z,1.32
2024-01-31T22:20:04.016Z,1.28
2024-01-31T22:22:30.697Z,1.25
2024-01-31T22:24:57.372Z,1.22
2024-01-31T22:27:23.857Z,1.19
2024-01-31T22:29:50.330Z,1.17
2024-01-31T22:32:16.818Z,1.12
2024-01-31T22:34:43.323Z,1.10
2024-01-31T22:37:09.778Z,1.01
2024-01-31T22:39:36.228Z,0.98
2024-01-31T22:42:02.994Z,1.01
2024-01-31T22:44:29.595Z,0.96
2024-01-31T22:46:56.044Z,0.91
2024-01-31T22:49:22.749Z,0.96
2024-01-31T22:51:49.650Z,0.91
2024-01-31T22:54:16.154Z,0.92
2024-01-31T22:56:42.620Z,0.86
2024-01-31T22:59:09.119Z,0.76
2024-01-31T23:01:35.544Z,0.72
2024-01-31T23:04:04.534Z,0.67
2024-01-31T23:06:31.798Z,0.66
2024-01-31T23:08:58.552Z,0.64
2024-01-31T23:11:25.243Z,0.71
2024-01-31T23:13:51.943Z,0.63
2024-01-31T23:16:18.395Z,0.65
2024-01-31T23:18:44.988Z,0.65
2024-01-31T23:21:11.953Z,0.65
2024-01-31T23:23:40.589Z,0.64
2024-01-31T23:26:07.148Z,0.61
2024-01-31T23:28:33.554Z,0.62
2024-01-31T23:30:59.984Z,0.62
2024-01-31T23:33:26.522Z,0.58
2024-01-31T23:35:53.067Z,0.59
2024-01-31T23:38:19.935Z,0.58
2024-01-31T23:40:46.371Z,0.60
2024-01-31T23:43:12.779Z,0.63
2024-01-31T23:45:39.387Z,0.62
2024-01-31T23:48:06.565Z,0.62
2024-01-31T23:50:33.193Z,0.62
2024-01-31T23:52:59.682Z,0.64
2024-01-31T23:55:26.523Z,0.64
2024-01-31T23:57:52.951Z,0.71
